Piper Inness — WDC3984 — position and weather

sailwx.info

Track history (hours):
 
Tides and Currents Weather Stations Pressure Air Temp Water Temp Dewpoint Dewpoint Depression Visibility Wind Speed Wind Dir Waves Ship Positions

Piper Inness

Owner: Foss Maritime Co, Seattle, WA. More information available from US FCC via Universal Licensing System and Coast Guard Vessel Documentation Center.

Last reported at 2017-May-26 19:30 UTC. Time now 2017-May-27 13:49 UTC.
Position N 33°38' W 118°09'.

; draft 2 m.

Type: Other ship. MMSI: 367017440.

Date/timePositionNaut miles runAvg speedWind from/ knotsBaromVisibWave heightAir tempDewpointWater temp
2017-May-26 19:30N 33°38' W 118°09'817.0
2017-May-26 19:01N 33°31' W 118°03'817.0
2017-May-26 18:30N 33°24' W 117°59'917.0
2017-May-26 18:00N 33°16' W 117°54'713.9
2017-May-26 17:31N 33°10' W 117°51'1 1.2
2017-May-26 17:00N 33°09' W 117°51'1 1.3
2017-May-26 16:30N 33°09' W 117°51'0 0.4
2017-May-26 16:00N 33°08' W 117°51'1 2.6
2017-May-26 15:30N 33°07' W 117°50'0 0.5
2017-May-26 15:00N 33°07' W 117°51'1 0.6
2017-May-26 14:01N 33°07' W 117°51'1 1.7
2017-May-26 13:30N 33°06' W 117°51'1 1.3
2017-May-26 13:00N 33°05' W 117°51'1 2.2
2017-May-26 12:30N 33°04' W 117°50'0 0.8
2017-May-26 12:00N 33°04' W 117°50'1 1.7
2017-May-26 11:31N 33°03' W 117°50'1 1.4
2017-May-26 11:01N 33°02' W 117°50'0 0.3
2017-May-26 10:30N 33°02' W 117°50'2 3.3
2017-May-26 10:00N 33°01' W 117°49'2 3.3
2017-May-26 09:30N 32°60' W 117°48'1 1.8
2017-May-26 09:01N 32°59' W 117°47'3 5.1
2017-May-26 08:30N 33°01' W 117°49'0 0.3
2017-May-26 08:01N 33°00' W 117°49'1 1.4
2017-May-26 07:30N 33°00' W 117°49'0 0.4
2017-May-26 07:00N 33°00' W 117°49'1 1.0
2017-May-26 06:30N 32°60' W 117°49'0 0.1
2017-May-26 06:01N 32°60' W 117°49'0 0.1
2017-May-26 05:31N 32°60' W 117°49'2 4.3
2017-May-26 05:01N 32°59' W 117°46'0 0.2
2017-May-26 04:30N 32°59' W 117°46'1 2.9
2017-May-26 04:00N 32°58' W 117°45'1 1.6
2017-May-26 03:31N 32°58' W 117°44'0 0.7
2017-May-26 03:01N 32°58' W 117°44'0 0.7
2017-May-26 02:30N 32°58' W 117°45'0 0.4
2017-May-26 02:01N 32°58' W 117°44'2 4.7
2017-May-26 01:30N 32°56' W 117°43'1 2.1
2017-May-26 01:00N 32°55' W 117°43'1 2.4
2017-May-26 00:31N 32°56' W 117°44'1 2.3
2017-May-26 00:01N 32°55' W 117°43'1 2.8
2017-May-25 23:31N 32°56' W 117°44'1 2.5
2017-May-25 23:01N 32°57' W 117°45'0 0.6
2017-May-25 22:31N 32°57' W 117°44'1 1.4
2017-May-25 22:00N 32°58' W 117°45'0 1.0
2017-May-25 21:31N 32°58' W 117°46'0 0.9
2017-May-25 21:01N 32°58' W 117°46'1 2.5
2017-May-25 20:30N 32°59' W 117°47'2 3.3
2017-May-25 20:01N 33°01' W 117°48'1 2.6
2017-May-25 19:30N 33°02' W 117°49'2 4.2
2017-May-25 19:00N 33°03' W 117°51'3 5.5
2017-May-25 18:30N 33°05' W 117°53'2 5.0
2017-May-25 18:00N 33°07' W 117°54'2 4.1
2017-May-25 17:30N 33°09' W 117°56'3 5.4
2017-May-25 17:01N 33°11' W 117°58'612.4
2017-May-25 16:31N 33°17' W 118°01'816.6
2017-May-25 16:01N 33°24' W 118°04'816.7
2017-May-25 15:31N 33°33' W 118°06'816.7
2017-May-25 15:00N 33°40' W 118°10'6 0.6
2017-May-25 05:08N 33°46' W 118°13'0 0.0
2017-May-25 04:57N 33°46' W 118°13'0 0.0
2017-May-25 04:30N 33°46' W 118°13'0 0.0
2017-May-25 03:58N 33°46' W 118°13'0 0.0
2017-May-25 02:38N 33°46' W 118°13'0 0.0
2017-May-25 02:26N 33°46' W 118°13'0 0.0
2017-May-25 01:52N 33°46' W 118°13'0 0.0
2017-May-25 01:24N 33°46' W 118°13'0 0.0
2017-May-25 00:56N 33°46' W 118°13'0 0.0
2017-May-25 00:30N 33°46' W 118°13'0 0.0
2017-May-24 22:22N 33°46' W 118°13'0 0.0
2017-May-24 22:00N 33°46' W 118°13'0 0.0
2017-May-24 21:17N 33°46' W 118°13'0 0.0
2017-May-24 21:00N 33°46' W 118°13'0 0.0
2017-May-24 20:30N 33°46' W 118°13'0 0.0
2017-May-24 20:00N 33°46' W 118°13'0 0.0
2017-May-24 19:30N 33°46' W 118°13'0 0.0
2017-May-24 18:57N 33°46' W 118°13'0 0.0
2017-May-24 18:14N 33°46' W 118°13'0 0.0
2017-May-24 18:00N 33°46' W 118°13'0 0.0
2017-May-24 17:30N 33°46' W 118°13'0 0.0
2017-May-24 16:59N 33°46' W 118°13'0 0.0
2017-May-24 16:30N 33°46' W 118°13'0 0.0
2017-May-24 15:37N 33°46' W 118°13'0 0.0
2017-May-24 15:21N 33°46' W 118°13'0 0.0
2017-May-24 13:01N 33°46' W 118°13'0 0.5
2017-May-24 13:00N 33°46' W 118°13'0 0.0
2017-May-24 12:26N 33°46' W 118°13'0 0.0
2017-May-24 11:30N 33°46' W 118°13'0 0.0
2017-May-24 10:36N 33°46' W 118°13'0 0.1
2017-May-24 10:30N 33°46' W 118°13'0 0.0
2017-May-24 10:00N 33°46' W 118°13'0 0.0
2017-May-24 09:09N 33°46' W 118°13'0 0.0
2017-May-24 08:32N 33°46' W 118°13'0 0.0
2017-May-24 07:59N 33°46' W 118°13'0 0.0
2017-May-24 07:23N 33°46' W 118°13'0 0.0
2017-May-24 06:58N 33°46' W 118°13'0 0.0
2017-May-24 05:09N 33°46' W 118°13'0 0.0
2017-May-24 04:59N 33°46' W 118°13'0 0.0
2017-May-24 04:06N 33°46' W 118°13'0 0.0
2017-May-24 04:00N 33°46' W 118°13'0 0.0
2017-May-24 03:28N 33°46' W 118°13'0 0.0
2017-May-24 02:08N 33°46' W 118°13'0 0.0
2017-May-24 01:57N 33°46' W 118°13'0 0.0
2017-May-24 01:27N 33°46' W 118°13'0 0.0
2017-May-24 01:00N 33°46' W 118°13'0 0.0
2017-May-24 00:30N 33°46' W 118°13'0 0.0
2017-May-24 00:00N 33°46' W 118°13'0 0.0
2017-May-23 23:17N 33°46' W 118°13'0 0.0
2017-May-23 23:00N 33°46' W 118°13'0 0.0
2017-May-23 21:11N 33°46' W 118°13'0 0.0
2017-May-23 20:38N 33°46' W 118°13'0 0.0
2017-May-23 20:30N 33°46' W 118°13'0 0.0
2017-May-23 15:06N 33°46' W 118°13'1 3.1
2017-May-23 14:52N 33°46' W 118°13'1 1.6
2017-May-23 14:30N 33°46' W 118°13'1211.9
2017-May-23 13:30N 33°36' W 118°07'917.1
2017-May-23 13:01N 33°28' W 118°03'917.1
2017-May-23 12:30N 33°20' W 117°58'917.3
2017-May-23 12:00N 33°12' W 117°54'611.9
2017-May-23 11:31N 33°06' W 117°52'1 1.3
2017-May-23 11:01N 33°06' W 117°52'0 0.6
2017-May-23 10:31N 33°06' W 117°52'1 1.4
2017-May-23 10:01N 33°05' W 117°53'1 2.2
2017-May-23 09:31N 33°05' W 117°51'1 1.6
2017-May-23 09:01N 33°04' W 117°52'1 2.4
2017-May-23 08:31N 33°04' W 117°51'1 1.3
2017-May-23 08:01N 33°04' W 117°52'1 2.6
2017-May-23 07:30N 33°03' W 117°50'1 1.9
2017-May-23 07:00N 33°04' W 117°51'1 1.7
2017-May-23 06:30N 33°04' W 117°52'1 2.7
2017-May-23 06:00N 33°03' W 117°51'1 1.3
2017-May-23 05:30N 33°03' W 117°51'1 2.9
2017-May-23 05:01N 33°04' W 117°52'1 2.1
2017-May-23 04:31N 33°03' W 117°51'1 2.7
2017-May-23 04:01N 33°02' W 117°50'0 0.5
2017-May-23 03:31N 33°02' W 117°50'1 1.1
2017-May-23 03:01N 33°02' W 117°50'2 3.2
2017-May-23 02:31N 33°01' W 117°49'2 3.6
2017-May-23 02:01N 32°60' W 117°47'1 2.9
2017-May-23 01:31N 32°59' W 117°46'1 2.0
2017-May-23 01:00N 32°58' W 117°46'2 3.2
2017-May-23 00:30N 32°57' W 117°48'1 2.1
2017-May-23 00:01N 32°58' W 117°49'1 1.2
2017-May-22 23:30N 32°59' W 117°48'1 1.6
2017-May-22 23:01N 32°59' W 117°49'0 0.7
2017-May-22 22:31N 32°60' W 117°49'1 1.3
2017-May-22 22:00N 32°60' W 117°50'0 0.9
2017-May-22 21:31N 33°00' W 117°50'0 0.9
2017-May-22 21:00N 33°01' W 117°50'2 3.9
2017-May-22 20:30N 33°02' W 117°51'1 1.8
2017-May-22 20:01N 33°01' W 117°51'0 0.8
2017-May-22 19:31N 33°02' W 117°51'2 4.0
2017-May-22 19:01N 33°03' W 117°52'1 1.1
2017-May-22 18:30N 33°03' W 117°52'2 4.9
2017-May-22 18:01N 33°05' W 117°53'2 3.5
2017-May-22 17:31N 33°07' W 117°54'1 2.6
2017-May-22 17:00N 33°08' W 117°55'2 3.0
2017-May-22 16:30N 33°09' W 117°56'2 4.4
2017-May-22 16:00N 33°11' W 117°56'1 1.2
2017-May-22 15:31N 33°11' W 117°57'4 7.6
2017-May-22 15:01N 33°14' W 117°59'1716.5
2017-May-22 14:01N 33°30' W 118°04'816.6
2017-May-22 13:30N 33°38' W 118°07'5 9.1
2017-May-22 13:00N 33°42' W 118°10'5 9.1
2017-May-22 12:30N 33°46' W 118°13'1 0.7
2017-May-22 11:28N 33°46' W 118°13'0 0.0
2017-May-22 10:59N 33°46' W 118°13'0 0.0
2017-May-22 10:30N 33°46' W 118°13'0 0.0
2017-May-22 09:58N 33°46' W 118°13'0 0.0
2017-May-22 09:28N 33°46' W 118°13'0 0.0
2017-May-22 09:01N 33°46' W 118°13'0 0.0
2017-May-22 08:30N 33°46' W 118°13'0 0.0
2017-May-22 07:56N 33°46' W 118°13'0 0.0
2017-May-22 07:29N 33°46' W 118°13'0 0.0
2017-May-22 06:54N 33°46' W 118°13'0 0.0
2017-May-22 06:25N 33°46' W 118°13'0 0.0
2017-May-22 05:59N 33°46' W 118°13'0 0.0
2017-May-22 05:29N 33°46' W 118°13'0 0.0
2017-May-22 05:01N 33°46' W 118°13'0 0.0
2017-May-22 04:30N 33°46' W 118°13'0 0.0
2017-May-22 04:01N 33°46' W 118°13'0 0.0
2017-May-22 03:30N 33°46' W 118°13'0 0.0
2017-May-22 02:57N 33°46' W 118°13'0 0.0
2017-May-22 02:31N 33°46' W 118°13'0 0.0
2017-May-22 02:00N 33°46' W 118°13'0 0.0
2017-May-22 01:31N 33°46' W 118°13'0 0.0
2017-May-22 01:01N 33°46' W 118°13'0 0.0
2017-May-22 00:30N 33°46' W 118°13'0 0.0
2017-May-22 00:00N 33°46' W 118°13'0 0.0
2017-May-21 23:30N 33°46' W 118°13'0 0.0
2017-May-21 23:01N 33°46' W 118°13'0 0.0
2017-May-21 22:31N 33°46' W 118°13'0 0.0
2017-May-21 21:40N 33°46' W 118°13'0 0.0
2017-May-21 21:31N 33°46' W 118°13'0 0.0
2017-May-21 20:58N 33°46' W 118°13'0 0.0
2017-May-21 20:30N 33°46' W 118°13'0 0.0
2017-May-21 19:48N 33°46' W 118°13'0 0.0
2017-May-21 19:04N 33°46' W 118°13'0 0.1
2017-May-21 18:58N 33°46' W 118°13'0 0.0
2017-May-21 18:29N 33°46' W 118°13'0 0.0
2017-May-21 16:07N 33°46' W 118°13'0 0.0
2017-May-21 15:51N 33°46' W 118°13'0 0.0
2017-May-21 15:30N 33°46' W 118°13'0 0.0
2017-May-21 14:37N 33°46' W 118°13'0 0.0
2017-May-21 14:28N 33°46' W 118°13'0 0.0
2017-May-21 13:30N 33°46' W 118°13'0 0.0
2017-May-21 13:01N 33°46' W 118°13'0 0.0
2017-May-21 12:30N 33°46' W 118°13'0 0.0
2017-May-21 12:00N 33°46' W 118°13'0 0.0
2017-May-21 11:29N 33°46' W 118°13'0 0.0
2017-May-21 11:01N 33°46' W 118°13'0 0.0
2017-May-21 10:29N 33°46' W 118°13'0 0.0
2017-May-21 09:59N 33°46' W 118°13'0 0.0
2017-May-21 09:30N 33°46' W 118°13'0 0.0
2017-May-21 08:58N 33°46' W 118°13'0 0.0
2017-May-21 08:30N 33°46' W 118°13'0 0.0
2017-May-21 08:00N 33°46' W 118°13'0 0.0
2017-May-21 07:31N 33°46' W 118°13'0 0.0
2017-May-21 07:00N 33°46' W 118°13'0 0.0
2017-May-21 06:30N 33°46' W 118°13'0 0.0
2017-May-21 06:01N 33°46' W 118°13'0 0.0
2017-May-21 05:30N 33°46' W 118°13'0 0.0
2017-May-21 05:00N 33°46' W 118°13'0 0.0
2017-May-21 04:30N 33°46' W 118°13'0 0.0
2017-May-21 04:00N 33°46' W 118°13'0 0.0
2017-May-21 03:01N 33°46' W 118°13'0 0.0
2017-May-21 03:00N 33°46' W 118°13'0 0.0
2017-May-21 02:30N 33°46' W 118°13'0 0.0
2017-May-21 02:00N 33°46' W 118°13'0 0.0
2017-May-21 01:30N 33°46' W 118°13'0 0.0
2017-May-20 22:59N 33°46' W 118°13'0 0.0
2017-May-20 22:30N 33°46' W 118°13'0 0.0
2017-May-20 21:57N 33°46' W 118°13'0 0.0
2017-May-20 21:28N 33°46' W 118°13'0 0.0
2017-May-20 21:00N 33°46' W 118°13'0 0.0
2017-May-20 16:45N 33°46' W 118°13'0 0.0
2017-May-20 16:30N 33°46' W 118°13'0 0.0
2017-May-20 16:00N 33°46' W 118°13'0 0.0
2017-May-20 15:31N 33°46' W 118°13'0 0.0
2017-May-20 15:00N 33°46' W 118°13'0 0.0
2017-May-20 14:31N 33°46' W 118°13'0 0.0
2017-May-20 13:30N 33°46' W 118°13'0 0.0
2017-May-20 12:59N 33°46' W 118°13'0 0.0
2017-May-20 12:28N 33°46' W 118°13'0 0.0
2017-May-20 11:58N 33°46' W 118°13'0 0.0
2017-May-20 11:28N 33°46' W 118°13'0 0.0
2017-May-20 11:00N 33°46' W 118°13'0 0.0
2017-May-20 10:31N 33°46' W 118°13'0 0.0
2017-May-20 09:58N 33°46' W 118°13'0 0.0
2017-May-20 09:31N 33°46' W 118°13'0 0.0
2017-May-20 08:53N 33°46' W 118°13'0 0.0
2017-May-20 08:29N 33°46' W 118°13'0 0.0
2017-May-20 07:54N 33°46' W 118°13'0 0.0
2017-May-20 07:28N 33°46' W 118°13'0 0.0
2017-May-20 07:00N 33°46' W 118°13'0 0.0
2017-May-20 06:28N 33°46' W 118°13'0 0.0
2017-May-20 06:01N 33°46' W 118°13'0 0.0
2017-May-20 05:30N 33°46' W 118°13'0 0.0
2017-May-20 05:00N 33°46' W 118°13'0 0.0
2017-May-20 01:11N 33°46' W 118°13'0 0.0
2017-May-20 01:01N 33°46' W 118°13'0 0.0
2017-May-20 00:29N 33°46' W 118°13'0 0.0
2017-May-20 00:01N 33°46' W 118°13'0 0.0
2017-May-19 23:30N 33°46' W 118°13'0 0.0
2017-May-19 23:00N 33°46' W 118°13'0 0.0
2017-May-19 22:31N 33°46' W 118°13'0 0.0
2017-May-19 22:00N 33°46' W 118°13'0 0.0
2017-May-19 19:07N 33°46' W 118°13'0 0.0
2017-May-19 18:38N 33°46' W 118°13'0 0.0
2017-May-19 18:28N 33°46' W 118°13'0 0.0
2017-May-19 18:01N 33°46' W 118°13'0 0.0
2017-May-19 17:30N 33°46' W 118°13'0 0.0
2017-May-19 16:59N 33°46' W 118°13'0 0.0
2017-May-19 16:30N 33°46' W 118°13'0 0.0
2017-May-19 16:00N 33°46' W 118°13'0 0.0
2017-May-19 15:23N 33°46' W 118°13'0 0.0
2017-May-19 15:00N 33°46' W 118°13'0 0.0
2017-May-19 13:58N 33°46' W 118°13'0 0.0
2017-May-19 13:30N 33°46' W 118°13'0 0.0
2017-May-19 13:00N 33°46' W 118°13'0 0.0
2017-May-19 12:30N 33°46' W 118°13'0 0.0
2017-May-19 12:00N 33°46' W 118°13'0 0.0
2017-May-19 11:30N 33°46' W 118°13'0 0.0
2017-May-19 11:00N 33°46' W 118°13'0 0.0
2017-May-19 10:30N 33°46' W 118°13'0 0.0
2017-May-19 10:00N 33°46' W 118°13'0 0.0
2017-May-19 09:29N 33°46' W 118°13'0 0.0
2017-May-19 08:58N 33°46' W 118°13'0 0.0
2017-May-19 08:30N 33°46' W 118°13'0 0.0
2017-May-19 08:00N 33°46' W 118°13'0 0.0
2017-May-19 07:24N 33°46' W 118°13'0 0.0
2017-May-19 07:00N 33°46' W 118°13'0 0.0
2017-May-19 06:29N 33°46' W 118°13'0 0.0
2017-May-19 05:58N 33°46' W 118°13'0 0.0
2017-May-19 05:30N 33°46' W 118°13'0 0.0
2017-May-19 05:00N 33°46' W 118°13'0 0.0
2017-May-19 04:30N 33°46' W 118°13'0 0.0
2017-May-19 04:00N 33°46' W 118°13'0 0.0
2017-May-19 03:30N 33°46' W 118°13'0 0.0
2017-May-19 03:00N 33°46' W 118°13'0 0.0
2017-May-19 02:30N 33°46' W 118°13'0 0.0
2017-May-19 01:58N 33°46' W 118°13'0 0.0
2017-May-19 01:30N 33°46' W 118°13'0 0.0
2017-May-19 01:00N 33°46' W 118°13'0 0.0
2017-May-19 00:30N 33°46' W 118°13'0 0.0
2017-May-19 00:00N 33°46' W 118°13'0 0.0
2017-May-18 23:30N 33°46' W 118°13'0 0.1
2017-May-18 23:01N 33°46' W 118°13'0 0.1
2017-May-18 22:29N 33°46' W 118°13'0 0.0
2017-May-18 21:56N 33°46' W 118°13'0 0.2
2017-May-18 19:50N 33°46' W 118°13'4 3.8
2017-May-18 18:54N 33°43' W 118°15'2 3.9
2017-May-18 18:30N 33°44' W 118°16'0 0.0
2017-May-18 17:58N 33°44' W 118°16'0 0.0
2017-May-18 17:26N 33°44' W 118°16'16 0.7
2017-May-17 19:57N 33°32' W 118°04'817.3
2017-May-17 19:30N 33°25' W 117°60'917.2
2017-May-17 19:01N 33°17' W 117°55'4 8.7
2017-May-17 18:30N 33°13' W 117°54'1 1.1
2017-May-17 18:00N 33°12' W 117°55'1 1.1
2017-May-17 17:31N 33°12' W 117°55'1 2.3
2017-May-17 17:00N 33°11' W 117°54'3 6.6
2017-May-17 16:31N 33°09' W 117°52'1 2.2
2017-May-17 16:00N 33°08' W 117°52'0 0.9
2017-May-17 15:30N 33°07' W 117°53'1 2.0
2017-May-17 15:01N 33°06' W 117°53'1 2.3
2017-May-17 14:30N 33°07' W 117°52'1 0.5
2017-May-17 13:30N 33°06' W 117°52'0 0.8
2017-May-17 13:01N 33°06' W 117°52'1 1.7
2017-May-17 12:31N 33°06' W 117°51'1 2.2
2017-May-17 12:01N 33°05' W 117°50'2 3.3
2017-May-17 11:31N 33°05' W 117°48'1 2.3
2017-May-17 11:00N 33°04' W 117°47'3 5.6
2017-May-17 10:30N 33°02' W 117°50'1 1.0
2017-May-17 10:00N 33°02' W 117°50'1 1.6
2017-May-17 09:30N 33°01' W 117°49'0 0.8
2017-May-17 09:00N 33°01' W 117°50'2 3.0
2017-May-17 08:30N 33°00' W 117°48'1 1.9
2017-May-17 08:00N 32°60' W 117°49'1 2.8
2017-May-17 07:30N 32°59' W 117°48'1 1.0
2017-May-17 07:01N 32°59' W 117°48'0 0.8
2017-May-17 06:31N 32°59' W 117°49'1 2.6
2017-May-17 06:01N 32°58' W 117°47'1 1.3
2017-May-17 05:30N 32°58' W 117°47'1 3.0
2017-May-17 05:01N 32°57' W 117°49'1 2.7
2017-May-17 04:30N 32°57' W 117°47'1 2.6
2017-May-17 04:00N 32°56' W 117°46'1 2.6
2017-May-17 03:30N 32°55' W 117°45'1 2.6
2017-May-17 03:00N 32°54' W 117°44'1 2.7
2017-May-17 02:31N 32°53' W 117°42'1 2.8
2017-May-17 02:00N 32°53' W 117°41'1 2.8
2017-May-17 01:31N 32°53' W 117°43'1 1.4
2017-May-17 01:00N 32°54' W 117°42'1 2.1
2017-May-17 00:31N 32°54' W 117°43'1 1.8
2017-May-17 00:00N 32°55' W 117°43'1 1.9
2017-May-16 23:31N 32°56' W 117°44'2 3.6
2017-May-16 23:01N 32°57' W 117°46'0 0.7
2017-May-16 22:30N 32°57' W 117°46'1 2.1
2017-May-16 22:00N 32°58' W 117°47'0 0.2
2017-May-16 21:30N 32°58' W 117°47'0 0.6
2017-May-16 21:00N 32°58' W 117°47'1 2.0
2017-May-16 20:31N 32°59' W 117°48'1 2.3
2017-May-16 20:00N 32°59' W 117°49'0 0.7
2017-May-16 19:31N 32°60' W 117°49'  
Track history (hours):
 
Tides and Currents Weather Stations Pressure Air Temp Water Temp Dewpoint Dewpoint Depression Visibility Wind Speed Wind Dir Waves Ship Positions

Piper Inness

Owner: Foss Maritime Co, Seattle, WA. More information available from US FCC via Universal Licensing System and Coast Guard Vessel Documentation Center.

Last reported at 2017-May-26 19:30 UTC. Time now 2017-May-27 13:49 UTC.
Position N 33°38' W 118°09'.

; draft 2 m.

Type: Other ship. MMSI: 367017440.

Date/timePositionNaut miles runAvg speedWind from/ knotsBaromVisibWave heightAir tempDewpointWater temp
2017-May-26 19:30N 33°38' W 118°09'817.0
2017-May-26 19:01N 33°31' W 118°03'817.0
2017-May-26 18:30N 33°24' W 117°59'917.0
2017-May-26 18:00N 33°16' W 117°54'713.9
2017-May-26 17:31N 33°10' W 117°51'1 1.2
2017-May-26 17:00N 33°09' W 117°51'1 1.3
2017-May-26 16:30N 33°09' W 117°51'0 0.4
2017-May-26 16:00N 33°08' W 117°51'1 2.6
2017-May-26 15:30N 33°07' W 117°50'0 0.5
2017-May-26 15:00N 33°07' W 117°51'1 0.6
2017-May-26 14:01N 33°07' W 117°51'1 1.7
2017-May-26 13:30N 33°06' W 117°51'1 1.3
2017-May-26 13:00N 33°05' W 117°51'1 2.2
2017-May-26 12:30N 33°04' W 117°50'0 0.8
2017-May-26 12:00N 33°04' W 117°50'1 1.7
2017-May-26 11:31N 33°03' W 117°50'1 1.4
2017-May-26 11:01N 33°02' W 117°50'0 0.3
2017-May-26 10:30N 33°02' W 117°50'2 3.3
2017-May-26 10:00N 33°01' W 117°49'2 3.3
2017-May-26 09:30N 32°60' W 117°48'1 1.8
2017-May-26 09:01N 32°59' W 117°47'3 5.1
2017-May-26 08:30N 33°01' W 117°49'0 0.3
2017-May-26 08:01N 33°00' W 117°49'1 1.4
2017-May-26 07:30N 33°00' W 117°49'0 0.4
2017-May-26 07:00N 33°00' W 117°49'1 1.0
2017-May-26 06:30N 32°60' W 117°49'0 0.1
2017-May-26 06:01N 32°60' W 117°49'0 0.1
2017-May-26 05:31N 32°60' W 117°49'2 4.3
2017-May-26 05:01N 32°59' W 117°46'0 0.2
2017-May-26 04:30N 32°59' W 117°46'1 2.9
2017-May-26 04:00N 32°58' W 117°45'1 1.6
2017-May-26 03:31N 32°58' W 117°44'0 0.7
2017-May-26 03:01N 32°58' W 117°44'0 0.7
2017-May-26 02:30N 32°58' W 117°45'0 0.4
2017-May-26 02:01N 32°58' W 117°44'2 4.7
2017-May-26 01:30N 32°56' W 117°43'1 2.1
2017-May-26 01:00N 32°55' W 117°43'1 2.4
2017-May-26 00:31N 32°56' W 117°44'1 2.3
2017-May-26 00:01N 32°55' W 117°43'1 2.8
2017-May-25 23:31N 32°56' W 117°44'1 2.5
2017-May-25 23:01N 32°57' W 117°45'0 0.6
2017-May-25 22:31N 32°57' W 117°44'1 1.4
2017-May-25 22:00N 32°58' W 117°45'0 1.0
2017-May-25 21:31N 32°58' W 117°46'0 0.9
2017-May-25 21:01N 32°58' W 117°46'1 2.5
2017-May-25 20:30N 32°59' W 117°47'2 3.3
2017-May-25 20:01N 33°01' W 117°48'1 2.6
2017-May-25 19:30N 33°02' W 117°49'2 4.2
2017-May-25 19:00N 33°03' W 117°51'3 5.5
2017-May-25 18:30N 33°05' W 117°53'2 5.0
2017-May-25 18:00N 33°07' W 117°54'2 4.1
2017-May-25 17:30N 33°09' W 117°56'3 5.4
2017-May-25 17:01N 33°11' W 117°58'612.4
2017-May-25 16:31N 33°17' W 118°01'816.6
2017-May-25 16:01N 33°24' W 118°04'816.7
2017-May-25 15:31N 33°33' W 118°06'816.7
2017-May-25 15:00N 33°40' W 118°10'6 0.6
2017-May-25 05:08N 33°46' W 118°13'0 0.0
2017-May-25 04:57N 33°46' W 118°13'0 0.0
2017-May-25 04:30N 33°46' W 118°13'0 0.0
2017-May-25 03:58N 33°46' W 118°13'0 0.0
2017-May-25 02:38N 33°46' W 118°13'0 0.0
2017-May-25 02:26N 33°46' W 118°13'0 0.0
2017-May-25 01:52N 33°46' W 118°13'0 0.0
2017-May-25 01:24N 33°46' W 118°13'0 0.0
2017-May-25 00:56N 33°46' W 118°13'0 0.0
2017-May-25 00:30N 33°46' W 118°13'0 0.0
2017-May-24 22:22N 33°46' W 118°13'0 0.0
2017-May-24 22:00N 33°46' W 118°13'0 0.0
2017-May-24 21:17N 33°46' W 118°13'0 0.0
2017-May-24 21:00N 33°46' W 118°13'0 0.0
2017-May-24 20:30N 33°46' W 118°13'0 0.0
2017-May-24 20:00N 33°46' W 118°13'0 0.0
2017-May-24 19:30N 33°46' W 118°13'0 0.0
2017-May-24 18:57N 33°46' W 118°13'0 0.0
2017-May-24 18:14N 33°46' W 118°13'0 0.0
2017-May-24 18:00N 33°46' W 118°13'0 0.0
2017-May-24 17:30N 33°46' W 118°13'0 0.0
2017-May-24 16:59N 33°46' W 118°13'0 0.0
2017-May-24 16:30N 33°46' W 118°13'0 0.0
2017-May-24 15:37N 33°46' W 118°13'0 0.0
2017-May-24 15:21N 33°46' W 118°13'0 0.0
2017-May-24 13:01N 33°46' W 118°13'0 0.5
2017-May-24 13:00N 33°46' W 118°13'0 0.0
2017-May-24 12:26N 33°46' W 118°13'0 0.0
2017-May-24 11:30N 33°46' W 118°13'0 0.0
2017-May-24 10:36N 33°46' W 118°13'0 0.1
2017-May-24 10:30N 33°46' W 118°13'0 0.0
2017-May-24 10:00N 33°46' W 118°13'0 0.0
2017-May-24 09:09N 33°46' W 118°13'0 0.0
2017-May-24 08:32N 33°46' W 118°13'0 0.0
2017-May-24 07:59N 33°46' W 118°13'0 0.0
2017-May-24 07:23N 33°46' W 118°13'0 0.0
2017-May-24 06:58N 33°46' W 118°13'0 0.0
2017-May-24 05:09N 33°46' W 118°13'0 0.0
2017-May-24 04:59N 33°46' W 118°13'0 0.0
2017-May-24 04:06N 33°46' W 118°13'0 0.0
2017-May-24 04:00N 33°46' W 118°13'0 0.0
2017-May-24 03:28N 33°46' W 118°13'0 0.0
2017-May-24 02:08N 33°46' W 118°13'0 0.0
2017-May-24 01:57N 33°46' W 118°13'0 0.0
2017-May-24 01:27N 33°46' W 118°13'0 0.0
2017-May-24 01:00N 33°46' W 118°13'0 0.0
2017-May-24 00:30N 33°46' W 118°13'0 0.0
2017-May-24 00:00N 33°46' W 118°13'0 0.0
2017-May-23 23:17N 33°46' W 118°13'0 0.0
2017-May-23 23:00N 33°46' W 118°13'0 0.0
2017-May-23 21:11N 33°46' W 118°13'0 0.0
2017-May-23 20:38N 33°46' W 118°13'0 0.0
2017-May-23 20:30N 33°46' W 118°13'0 0.0
2017-May-23 15:06N 33°46' W 118°13'1 3.1
2017-May-23 14:52N 33°46' W 118°13'1 1.6
2017-May-23 14:30N 33°46' W 118°13'1211.9
2017-May-23 13:30N 33°36' W 118°07'917.1
2017-May-23 13:01N 33°28' W 118°03'917.1
2017-May-23 12:30N 33°20' W 117°58'917.3
2017-May-23 12:00N 33°12' W 117°54'611.9
2017-May-23 11:31N 33°06' W 117°52'1 1.3
2017-May-23 11:01N 33°06' W 117°52'0 0.6
2017-May-23 10:31N 33°06' W 117°52'1 1.4
2017-May-23 10:01N 33°05' W 117°53'1 2.2
2017-May-23 09:31N 33°05' W 117°51'1 1.6
2017-May-23 09:01N 33°04' W 117°52'1 2.4
2017-May-23 08:31N 33°04' W 117°51'1 1.3
2017-May-23 08:01N 33°04' W 117°52'1 2.6
2017-May-23 07:30N 33°03' W 117°50'1 1.9
2017-May-23 07:00N 33°04' W 117°51'1 1.7
2017-May-23 06:30N 33°04' W 117°52'1 2.7
2017-May-23 06:00N 33°03' W 117°51'1 1.3
2017-May-23 05:30N 33°03' W 117°51'1 2.9
2017-May-23 05:01N 33°04' W 117°52'1 2.1
2017-May-23 04:31N 33°03' W 117°51'1 2.7
2017-May-23 04:01N 33°02' W 117°50'0 0.5
2017-May-23 03:31N 33°02' W 117°50'1 1.1
2017-May-23 03:01N 33°02' W 117°50'2 3.2
2017-May-23 02:31N 33°01' W 117°49'2 3.6
2017-May-23 02:01N 32°60' W 117°47'1 2.9
2017-May-23 01:31N 32°59' W 117°46'1 2.0
2017-May-23 01:00N 32°58' W 117°46'2 3.2
2017-May-23 00:30N 32°57' W 117°48'1 2.1
2017-May-23 00:01N 32°58' W 117°49'1 1.2
2017-May-22 23:30N 32°59' W 117°48'1 1.6
2017-May-22 23:01N 32°59' W 117°49'0 0.7
2017-May-22 22:31N 32°60' W 117°49'1 1.3
2017-May-22 22:00N 32°60' W 117°50'0 0.9
2017-May-22 21:31N 33°00' W 117°50'0 0.9
2017-May-22 21:00N 33°01' W 117°50'2 3.9
2017-May-22 20:30N 33°02' W 117°51'1 1.8
2017-May-22 20:01N 33°01' W 117°51'0 0.8
2017-May-22 19:31N 33°02' W 117°51'2 4.0
2017-May-22 19:01N 33°03' W 117°52'1 1.1
2017-May-22 18:30N 33°03' W 117°52'2 4.9
2017-May-22 18:01N 33°05' W 117°53'2 3.5
2017-May-22 17:31N 33°07' W 117°54'1 2.6
2017-May-22 17:00N 33°08' W 117°55'2 3.0
2017-May-22 16:30N 33°09' W 117°56'2 4.4
2017-May-22 16:00N 33°11' W 117°56'1 1.2
2017-May-22 15:31N 33°11' W 117°57'4 7.6
2017-May-22 15:01N 33°14' W 117°59'1716.5
2017-May-22 14:01N 33°30' W 118°04'816.6
2017-May-22 13:30N 33°38' W 118°07'5 9.1
2017-May-22 13:00N 33°42' W 118°10'5 9.1
2017-May-22 12:30N 33°46' W 118°13'1 0.7
2017-May-22 11:28N 33°46' W 118°13'0 0.0
2017-May-22 10:59N 33°46' W 118°13'0 0.0
2017-May-22 10:30N 33°46' W 118°13'0 0.0
2017-May-22 09:58N 33°46' W 118°13'0 0.0
2017-May-22 09:28N 33°46' W 118°13'0 0.0
2017-May-22 09:01N 33°46' W 118°13'0 0.0
2017-May-22 08:30N 33°46' W 118°13'0 0.0
2017-May-22 07:56N 33°46' W 118°13'0 0.0
2017-May-22 07:29N 33°46' W 118°13'0 0.0
2017-May-22 06:54N 33°46' W 118°13'0 0.0
2017-May-22 06:25N 33°46' W 118°13'0 0.0
2017-May-22 05:59N 33°46' W 118°13'0 0.0
2017-May-22 05:29N 33°46' W 118°13'0 0.0
2017-May-22 05:01N 33°46' W 118°13'0 0.0
2017-May-22 04:30N 33°46' W 118°13'0 0.0
2017-May-22 04:01N 33°46' W 118°13'0 0.0
2017-May-22 03:30N 33°46' W 118°13'0 0.0
2017-May-22 02:57N 33°46' W 118°13'0 0.0
2017-May-22 02:31N 33°46' W 118°13'0 0.0
2017-May-22 02:00N 33°46' W 118°13'0 0.0
2017-May-22 01:31N 33°46' W 118°13'0 0.0
2017-May-22 01:01N 33°46' W 118°13'0 0.0
2017-May-22 00:30N 33°46' W 118°13'0 0.0
2017-May-22 00:00N 33°46' W 118°13'0 0.0
2017-May-21 23:30N 33°46' W 118°13'0 0.0
2017-May-21 23:01N 33°46' W 118°13'0 0.0
2017-May-21 22:31N 33°46' W 118°13'0 0.0
2017-May-21 21:40N 33°46' W 118°13'0 0.0
2017-May-21 21:31N 33°46' W 118°13'0 0.0
2017-May-21 20:58N 33°46' W 118°13'0 0.0
2017-May-21 20:30N 33°46' W 118°13'0 0.0
2017-May-21 19:48N 33°46' W 118°13'0 0.0
2017-May-21 19:04N 33°46' W 118°13'0 0.1
2017-May-21 18:58N 33°46' W 118°13'0 0.0
2017-May-21 18:29N 33°46' W 118°13'0 0.0
2017-May-21 16:07N 33°46' W 118°13'0 0.0
2017-May-21 15:51N 33°46' W 118°13'0 0.0
2017-May-21 15:30N 33°46' W 118°13'0 0.0
2017-May-21 14:37N 33°46' W 118°13'0 0.0
2017-May-21 14:28N 33°46' W 118°13'0 0.0
2017-May-21 13:30N 33°46' W 118°13'0 0.0
2017-May-21 13:01N 33°46' W 118°13'0 0.0
2017-May-21 12:30N 33°46' W 118°13'0 0.0
2017-May-21 12:00N 33°46' W 118°13'0 0.0
2017-May-21 11:29N 33°46' W 118°13'0 0.0
2017-May-21 11:01N 33°46' W 118°13'0 0.0
2017-May-21 10:29N 33°46' W 118°13'0 0.0
2017-May-21 09:59N 33°46' W 118°13'0 0.0
2017-May-21 09:30N 33°46' W 118°13'0 0.0
2017-May-21 08:58N 33°46' W 118°13'0 0.0
2017-May-21 08:30N 33°46' W 118°13'0 0.0
2017-May-21 08:00N 33°46' W 118°13'0 0.0
2017-May-21 07:31N 33°46' W 118°13'0 0.0
2017-May-21 07:00N 33°46' W 118°13'0 0.0
2017-May-21 06:30N 33°46' W 118°13'0 0.0
2017-May-21 06:01N 33°46' W 118°13'0 0.0
2017-May-21 05:30N 33°46' W 118°13'0 0.0
2017-May-21 05:00N 33°46' W 118°13'0 0.0
2017-May-21 04:30N 33°46' W 118°13'0 0.0
2017-May-21 04:00N 33°46' W 118°13'0 0.0
2017-May-21 03:01N 33°46' W 118°13'0 0.0
2017-May-21 03:00N 33°46' W 118°13'0 0.0
2017-May-21 02:30N 33°46' W 118°13'0 0.0
2017-May-21 02:00N 33°46' W 118°13'0 0.0
2017-May-21 01:30N 33°46' W 118°13'0 0.0
2017-May-20 22:59N 33°46' W 118°13'0 0.0
2017-May-20 22:30N 33°46' W 118°13'0 0.0
2017-May-20 21:57N 33°46' W 118°13'0 0.0
2017-May-20 21:28N 33°46' W 118°13'0 0.0
2017-May-20 21:00N 33°46' W 118°13'0 0.0
2017-May-20 16:45N 33°46' W 118°13'0 0.0
2017-May-20 16:30N 33°46' W 118°13'0 0.0
2017-May-20 16:00N 33°46' W 118°13'0 0.0
2017-May-20 15:31N 33°46' W 118°13'0 0.0
2017-May-20 15:00N 33°46' W 118°13'0 0.0
2017-May-20 14:31N 33°46' W 118°13'0 0.0
2017-May-20 13:30N 33°46' W 118°13'0 0.0
2017-May-20 12:59N 33°46' W 118°13'0 0.0
2017-May-20 12:28N 33°46' W 118°13'0 0.0
2017-May-20 11:58N 33°46' W 118°13'0 0.0
2017-May-20 11:28N 33°46' W 118°13'0 0.0
2017-May-20 11:00N 33°46' W 118°13'0 0.0
2017-May-20 10:31N 33°46' W 118°13'0 0.0
2017-May-20 09:58N 33°46' W 118°13'0 0.0
2017-May-20 09:31N 33°46' W 118°13'0 0.0
2017-May-20 08:53N 33°46' W 118°13'0 0.0
2017-May-20 08:29N 33°46' W 118°13'0 0.0
2017-May-20 07:54N 33°46' W 118°13'0 0.0
2017-May-20 07:28N 33°46' W 118°13'0 0.0
2017-May-20 07:00N 33°46' W 118°13'0 0.0
2017-May-20 06:28N 33°46' W 118°13'0 0.0
2017-May-20 06:01N 33°46' W 118°13'0 0.0
2017-May-20 05:30N 33°46' W 118°13'0 0.0
2017-May-20 05:00N 33°46' W 118°13'0 0.0
2017-May-20 01:11N 33°46' W 118°13'0 0.0
2017-May-20 01:01N 33°46' W 118°13'0 0.0
2017-May-20 00:29N 33°46' W 118°13'0 0.0
2017-May-20 00:01N 33°46' W 118°13'0 0.0
2017-May-19 23:30N 33°46' W 118°13'0 0.0
2017-May-19 23:00N 33°46' W 118°13'0 0.0
2017-May-19 22:31N 33°46' W 118°13'0 0.0
2017-May-19 22:00N 33°46' W 118°13'0 0.0
2017-May-19 19:07N 33°46' W 118°13'0 0.0
2017-May-19 18:38N 33°46' W 118°13'0 0.0
2017-May-19 18:28N 33°46' W 118°13'0 0.0
2017-May-19 18:01N 33°46' W 118°13'0 0.0
2017-May-19 17:30N 33°46' W 118°13'0 0.0
2017-May-19 16:59N 33°46' W 118°13'0 0.0
2017-May-19 16:30N 33°46' W 118°13'0 0.0
2017-May-19 16:00N 33°46' W 118°13'0 0.0
2017-May-19 15:23N 33°46' W 118°13'0 0.0
2017-May-19 15:00N 33°46' W 118°13'0 0.0
2017-May-19 13:58N 33°46' W 118°13'0 0.0
2017-May-19 13:30N 33°46' W 118°13'0 0.0
2017-May-19 13:00N 33°46' W 118°13'0 0.0
2017-May-19 12:30N 33°46' W 118°13'0 0.0
2017-May-19 12:00N 33°46' W 118°13'0 0.0
2017-May-19 11:30N 33°46' W 118°13'0 0.0
2017-May-19 11:00N 33°46' W 118°13'0 0.0
2017-May-19 10:30N 33°46' W 118°13'0 0.0
2017-May-19 10:00N 33°46' W 118°13'0 0.0
2017-May-19 09:29N 33°46' W 118°13'0 0.0
2017-May-19 08:58N 33°46' W 118°13'0 0.0
2017-May-19 08:30N 33°46' W 118°13'0 0.0
2017-May-19 08:00N 33°46' W 118°13'0 0.0
2017-May-19 07:24N 33°46' W 118°13'0 0.0
2017-May-19 07:00N 33°46' W 118°13'0 0.0
2017-May-19 06:29N 33°46' W 118°13'0 0.0
2017-May-19 05:58N 33°46' W 118°13'0 0.0
2017-May-19 05:30N 33°46' W 118°13'0 0.0
2017-May-19 05:00N 33°46' W 118°13'0 0.0
2017-May-19 04:30N 33°46' W 118°13'0 0.0
2017-May-19 04:00N 33°46' W 118°13'0 0.0
2017-May-19 03:30N 33°46' W 118°13'0 0.0
2017-May-19 03:00N 33°46' W 118°13'0 0.0
2017-May-19 02:30N 33°46' W 118°13'0 0.0
2017-May-19 01:58N 33°46' W 118°13'0 0.0
2017-May-19 01:30N 33°46' W 118°13'0 0.0
2017-May-19 01:00N 33°46' W 118°13'0 0.0
2017-May-19 00:30N 33°46' W 118°13'0 0.0
2017-May-19 00:00N 33°46' W 118°13'0 0.0
2017-May-18 23:30N 33°46' W 118°13'0 0.1
2017-May-18 23:01N 33°46' W 118°13'0 0.1
2017-May-18 22:29N 33°46' W 118°13'0 0.0
2017-May-18 21:56N 33°46' W 118°13'0 0.2
2017-May-18 19:50N 33°46' W 118°13'4 3.8
2017-May-18 18:54N 33°43' W 118°15'2 3.9
2017-May-18 18:30N 33°44' W 118°16'0 0.0
2017-May-18 17:58N 33°44' W 118°16'0 0.0
2017-May-18 17:26N 33°44' W 118°16'16 0.7
2017-May-17 19:57N 33°32' W 118°04'817.3
2017-May-17 19:30N 33°25' W 117°60'917.2
2017-May-17 19:01N 33°17' W 117°55'4 8.7
2017-May-17 18:30N 33°13' W 117°54'1 1.1
2017-May-17 18:00N 33°12' W 117°55'1 1.1
2017-May-17 17:31N 33°12' W 117°55'1 2.3
2017-May-17 17:00N 33°11' W 117°54'3 6.6
2017-May-17 16:31N 33°09' W 117°52'1 2.2
2017-May-17 16:00N 33°08' W 117°52'0 0.9
2017-May-17 15:30N 33°07' W 117°53'1 2.0
2017-May-17 15:01N 33°06' W 117°53'1 2.3
2017-May-17 14:30N 33°07' W 117°52'1 0.5
2017-May-17 13:30N 33°06' W 117°52'0 0.8
2017-May-17 13:01N 33°06' W 117°52'1 1.7
2017-May-17 12:31N 33°06' W 117°51'1 2.2
2017-May-17 12:01N 33°05' W 117°50'2 3.3
2017-May-17 11:31N 33°05' W 117°48'1 2.3
2017-May-17 11:00N 33°04' W 117°47'3 5.6
2017-May-17 10:30N 33°02' W 117°50'1 1.0
2017-May-17 10:00N 33°02' W 117°50'1 1.6
2017-May-17 09:30N 33°01' W 117°49'0 0.8
2017-May-17 09:00N 33°01' W 117°50'2 3.0
2017-May-17 08:30N 33°00' W 117°48'1 1.9
2017-May-17 08:00N 32°60' W 117°49'1 2.8
2017-May-17 07:30N 32°59' W 117°48'1 1.0
2017-May-17 07:01N 32°59' W 117°48'0 0.8
2017-May-17 06:31N 32°59' W 117°49'1 2.6
2017-May-17 06:01N 32°58' W 117°47'1 1.3
2017-May-17 05:30N 32°58' W 117°47'1 3.0
2017-May-17 05:01N 32°57' W 117°49'1 2.7
2017-May-17 04:30N 32°57' W 117°47'1 2.6
2017-May-17 04:00N 32°56' W 117°46'1 2.6
2017-May-17 03:30N 32°55' W 117°45'1 2.6
2017-May-17 03:00N 32°54' W 117°44'1 2.7
2017-May-17 02:31N 32°53' W 117°42'1 2.8
2017-May-17 02:00N 32°53' W 117°41'1 2.8
2017-May-17 01:31N 32°53' W 117°43'1 1.4
2017-May-17 01:00N 32°54' W 117°42'1 2.1
2017-May-17 00:31N 32°54' W 117°43'1 1.8
2017-May-17 00:00N 32°55' W 117°43'1 1.9
2017-May-16 23:31N 32°56' W 117°44'2 3.6
2017-May-16 23:01N 32°57' W 117°46'0 0.7
2017-May-16 22:30N 32°57' W 117°46'1 2.1
2017-May-16 22:00N 32°58' W 117°47'0 0.2
2017-May-16 21:30N 32°58' W 117°47'0 0.6
2017-May-16 21:00N 32°58' W 117°47'1 2.0
2017-May-16 20:31N 32°59' W 117°48'1 2.3
2017-May-16 20:00N 32°59' W 117°49'0 0.7
2017-May-16 19:31N 32°60' W 117°49'  

Dump ship's entire track history